createdAt,value
2022-12-05T00:01:43.182Z,98868.44
2022-12-05T00:04:13.565Z,98866.50
2022-12-05T00:06:43.137Z,98847.00
2022-12-05T00:09:13.050Z,98865.94
2022-12-05T00:11:42.869Z,98857.25
2022-12-05T00:14:11.473Z,98854.47
2022-12-05T00:16:41.333Z,98851.69
2022-12-05T00:19:10.453Z,98852.03
2022-12-05T00:21:38.923Z,98865.94
2022-12-05T00:24:09.950Z,98830.41
2022-12-05T00:26:37.625Z,98824.19
2022-12-05T00:29:05.869Z,98859.53
2022-12-05T00:31:33.663Z,98856.13
2022-12-05T00:34:03.028Z,98861.34
2022-12-05T00:36:33.568Z,98857.44
2022-12-05T00:39:03.433Z,98851.22
2022-12-05T00:41:31.659Z,98848.38
2022-12-05T00:44:01.903Z,98864.31
2022-12-05T00:46:31.269Z,98865.34
2022-12-05T00:49:00.443Z,98855.56
2022-12-05T00:51:33.516Z,98849.56
2022-12-05T00:54:07.084Z,98856.06
2022-12-05T00:56:35.522Z,98848.75
2022-12-05T00:59:03.945Z,98846.56
2022-12-05T01:01:40.269Z,98854.72
2022-12-05T01:04:14.314Z,98823.44
2022-12-05T01:06:43.262Z,98849.84
2022-12-05T01:09:14.514Z,98818.97
2022-12-05T01:11:43.296Z,98839.13
2022-12-05T01:14:12.640Z,98833.97
2022-12-05T01:16:42.009Z,98829.59
2022-12-05T01:19:15.961Z,98830.34
2022-12-05T01:21:44.294Z,98850.00
2022-12-05T01:24:12.821Z,98848.91
2022-12-05T01:26:41.912Z,98846.16
2022-12-05T01:29:10.438Z,98838.78
2022-12-05T01:31:39.252Z,98801.25
2022-12-05T01:34:09.313Z,98827.59
2022-12-05T01:36:39.275Z,98795.78
2022-12-05T01:39:09.008Z,98811.69
2022-12-05T01:41:42.445Z,98813.66
2022-12-05T01:44:12.915Z,98824.56
2022-12-05T01:46:49.692Z,98821.91
2022-12-05T01:49:29.267Z,98823.63
2022-12-05T01:52:02.966Z,98805.53
2022-12-05T01:54:31.571Z,98818.03
2022-12-05T01:57:03.349Z,98819.47
2022-12-05T01:59:36.810Z,98823.25
2022-12-05T02:02:05.308Z,98824.03
2022-12-05T02:04:39.435Z,98813.81
2022-12-05T02:07:07.218Z,98826.78
2022-12-05T02:09:36.471Z,98835.81
2022-12-05T02:12:04.793Z,98838.03
2022-12-05T02:15:04.762Z,98827.69
2022-12-05T02:17:47.562Z,98818.34
2022-12-05T02:20:18.249Z,98829.84
2022-12-05T02:23:19.918Z,98842.16
2022-12-05T02:25:53.272Z,98835.97
2022-12-05T02:28:51.996Z,98844.06
2022-12-05T02:31:35.080Z,98852.03
2022-12-05T02:34:31.707Z,98838.16
2022-12-05T02:37:07.833Z,98846.09
2022-12-05T02:40:15.018Z,98844.13
2022-12-05T02:42:50.505Z,98838.16
2022-12-05T02:45:21.448Z,98834.88
2022-12-05T02:47:52.429Z,98835.28
2022-12-05T02:50:24.457Z,98827.19
2022-12-05T02:52:56.906Z,98798.69
2022-12-05T02:55:28.099Z,98804.84
2022-12-05T02:57:59.505Z,98832.28
2022-12-05T03:00:27.202Z,98821.00
2022-12-05T03:02:58.067Z,98812.91
2022-12-05T03:05:58.110Z,98836.31
2022-12-05T03:08:31.598Z,98829.75
2022-12-05T03:11:02.675Z,98807.19
2022-12-05T03:13:55.928Z,98808.31
2022-12-05T03:16:30.440Z,98816.38
2022-12-05T03:19:04.265Z,98814.25
2022-12-05T03:21:41.976Z,98805.09
2022-12-05T03:24:12.612Z,98820.19
2022-12-05T03:27:10.971Z,98814.44
2022-12-05T03:29:41.635Z,98816.13
2022-12-05T03:32:16.703Z,98798.53
2022-12-05T03:34:47.465Z,98816.69
2022-12-05T03:37:31.611Z,98825.66
2022-12-05T03:40:10.447Z,98800.00
2022-12-05T03:42:41.719Z,98821.56
2022-12-05T03:45:16.390Z,98830.91
2022-12-05T03:47:53.992Z,98822.78
2022-12-05T03:50:29.795Z,98827.91
2022-12-05T03:53:22.208Z,98833.34
2022-12-05T03:55:58.922Z,98836.34
2022-12-05T03:58:52.631Z,98842.44
2022-12-05T04:01:23.582Z,98831.50
2022-12-05T04:03:57.929Z,98834.47
2022-12-05T04:06:30.581Z,98830.34
2022-12-05T04:09:03.463Z,98833.13
2022-12-05T04:11:35.805Z,98831.25
2022-12-05T04:14:12.659Z,98833.31
2022-12-05T04:17:05.457Z,98822.13
2022-12-05T04:20:10.939Z,98828.72
2022-12-05T04:22:40.456Z,98813.31
2022-12-05T04:25:31.047Z,98827.31
2022-12-05T04:28:25.868Z,98838.03
2022-12-05T04:31:13.046Z,98833.31
2022-12-05T04:33:54.148Z,98834.16
2022-12-05T04:36:29.583Z,98832.56
2022-12-05T04:39:14.590Z,98830.34
2022-12-05T04:41:54.994Z,98831.06
2022-12-05T04:44:30.528Z,98820.72
2022-12-05T04:47:01.490Z,98804.03
2022-12-05T04:49:32.396Z,98807.03
2022-12-05T04:52:04.991Z,98822.66
2022-12-05T04:54:38.677Z,98801.56
2022-12-05T04:57:14.486Z,98799.38
2022-12-05T04:59:50.467Z,98799.91
2022-12-05T05:02:25.577Z,98798.56
2022-12-05T05:04:58.899Z,98797.78
2022-12-05T05:07:27.711Z,98779.22
2022-12-05T05:09:57.432Z,98802.53
2022-12-05T05:12:25.308Z,98806.22
2022-12-05T05:14:53.016Z,98805.97
2022-12-05T05:17:20.679Z,98815.78
2022-12-05T05:19:48.481Z,98809.47
2022-12-05T05:22:16.160Z,98796.34
2022-12-05T05:24:43.866Z,98799.94
2022-12-05T05:27:11.522Z,98821.25
2022-12-05T05:29:39.179Z,98839.22
2022-12-05T05:32:06.860Z,98829.03
2022-12-05T05:34:34.550Z,98818.63
2022-12-05T05:37:02.244Z,98810.59
2022-12-05T05:39:29.988Z,98823.09
2022-12-05T05:41:57.687Z,98823.09
2022-12-05T05:44:25.427Z,98829.41
2022-12-05T05:46:53.252Z,98817.13
2022-12-05T05:49:20.981Z,98829.16
2022-12-05T05:51:48.682Z,98829.41
2022-12-05T05:54:16.388Z,98824.75
2022-12-05T05:56:44.068Z,98827.22
2022-12-05T05:59:11.713Z,98809.66
2022-12-05T06:01:39.434Z,98804.00
2022-12-05T06:04:07.765Z,98813.03
2022-12-05T06:06:35.738Z,98818.78
2022-12-05T06:09:03.450Z,98821.44
2022-12-05T06:11:31.142Z,98814.41
2022-12-05T06:14:02.189Z,98808.41
2022-12-05T06:16:31.317Z,98830.44
2022-12-05T06:19:00.041Z,98834.50
2022-12-05T06:21:28.155Z,98816.88
2022-12-05T06:23:56.249Z,98816.19
2022-12-05T06:26:24.458Z,98825.91
2022-12-05T06:28:52.185Z,98823.94
2022-12-05T06:31:22.707Z,98842.75
2022-12-05T06:33:50.788Z,98846.06
2022-12-05T06:36:22.511Z,98850.56
2022-12-05T06:38:50.451Z,98840.06
2022-12-05T06:41:20.864Z,98850.31
2022-12-05T06:43:48.883Z,98857.00
2022-12-05T06:46:17.384Z,98861.78
2022-12-05T06:48:45.910Z,98860.16
2022-12-05T06:51:16.106Z,98864.63
2022-12-05T06:53:44.241Z,98875.50
2022-12-05T06:56:14.958Z,98876.38
2022-12-05T06:58:48.008Z,98871.78
2022-12-05T07:01:35.942Z,98864.44
2022-12-05T07:04:05.480Z,98864.44
2022-12-05T07:06:34.368Z,98864.97
2022-12-05T07:09:02.343Z,98877.81
2022-12-05T07:11:30.128Z,98863.09
2022-12-05T07:13:58.115Z,98863.78
2022-12-05T07:16:25.852Z,98866.22
2022-12-05T07:18:53.737Z,98859.94
2022-12-05T07:21:22.039Z,98850.56
2022-12-05T07:23:51.225Z,98859.09
2022-12-05T07:26:22.203Z,98867.25
2022-12-05T07:28:50.832Z,98857.06
2022-12-05T07:31:22.577Z,98860.69
2022-12-05T07:33:51.147Z,98865.69
2022-12-05T07:36:22.456Z,98864.91
2022-12-05T07:38:50.559Z,98873.69
2022-12-05T07:41:26.793Z,98863.94
2022-12-05T07:43:57.394Z,98870.25
2022-12-05T07:46:26.383Z,98862.16
2022-12-05T07:48:54.345Z,98864.72
2022-12-05T07:51:23.219Z,98859.84
2022-12-05T07:53:51.326Z,98868.78
2022-12-05T07:56:19.521Z,98877.31
2022-12-05T07:58:50.067Z,98870.19
2022-12-05T08:01:23.521Z,98862.84
2022-12-05T08:03:51.835Z,98864.78
2022-12-05T08:06:22.711Z,98859.16
2022-12-05T08:08:51.336Z,98854.50
2022-12-05T08:11:24.330Z,98869.06
2022-12-05T08:13:52.515Z,98869.75
2022-12-05T08:16:23.092Z,98875.63
2022-12-05T08:18:55.597Z,98850.81
2022-12-05T08:21:23.379Z,98861.91
2022-12-05T08:23:51.042Z,98859.22
2022-12-05T08:26:32.641Z,98859.19
2022-12-05T08:29:10.967Z,98863.59
2022-12-05T08:31:44.882Z,98857.84
2022-12-05T08:34:14.199Z,98855.34
2022-12-05T08:36:42.662Z,98854.03
2022-12-05T08:39:15.928Z,98862.91
2022-12-05T08:41:45.287Z,98873.38
2022-12-05T08:44:16.331Z,98860.16
2022-12-05T08:46:45.789Z,98855.03
2022-12-05T08:49:14.099Z,98869.59
2022-12-05T08:51:43.032Z,98871.22
2022-12-05T08:54:10.878Z,98866.03
2022-12-05T08:56:39.798Z,98863.34
2022-12-05T08:59:08.055Z,98865.50
2022-12-05T09:01:38.865Z,98873.97
2022-12-05T09:04:07.070Z,98871.25
2022-12-05T09:06:36.325Z,98880.59
2022-12-05T09:09:07.435Z,98859.31
2022-12-05T09:11:38.266Z,98842.56
2022-12-05T09:14:06.267Z,98881.41
2022-12-05T09:16:39.344Z,98872.66
2022-12-05T09:19:13.643Z,98880.69
2022-12-05T09:21:42.076Z,98874.50
2022-12-05T09:24:12.844Z,98869.59
2022-12-05T09:26:41.653Z,98876.91
2022-12-05T09:29:16.151Z,98868.16
2022-12-05T09:31:46.270Z,98870.47
2022-12-05T09:34:15.243Z,98861.63
2022-12-05T09:36:44.155Z,98865.81
2022-12-05T09:39:12.328Z,98864.78
2022-12-05T09:42:23.350Z,98856.88
2022-12-05T09:45:09.467Z,98855.47
2022-12-05T09:47:39.883Z,98853.56
2022-12-05T09:50:29.347Z,98812.88
2022-12-05T09:53:08.616Z,98825.59
2022-12-05T09:55:53.309Z,98822.97
2022-12-05T09:58:23.708Z,98838.56
2022-12-05T10:00:55.764Z,98845.41
2022-12-05T10:03:47.317Z,98847.59
2022-12-05T10:06:25.270Z,98831.13
2022-12-05T10:09:11.540Z,98825.09
2022-12-05T10:12:17.617Z,98841.03
2022-12-05T10:14:54.336Z,98829.97
2022-12-05T10:17:36.888Z,98827.75
2022-12-05T10:20:19.776Z,98829.38
2022-12-05T10:22:56.000Z,98813.13
2022-12-05T10:25:27.434Z,98810.94
2022-12-05T10:28:02.188Z,98823.63
2022-12-05T10:30:33.433Z,98822.00
2022-12-05T10:33:11.325Z,98811.63
2022-12-05T10:35:41.017Z,98817.88
2022-12-05T10:38:31.278Z,98812.94
2022-12-05T10:41:01.709Z,98797.03
2022-12-05T10:43:32.138Z,98812.50
2022-12-05T10:46:00.595Z,98803.44
2022-12-05T10:48:28.839Z,98794.09
2022-12-05T10:50:58.455Z,98799.34
2022-12-05T10:53:29.852Z,98805.34
2022-12-05T10:56:29.225Z,98807.81
2022-12-05T10:58:56.701Z,98805.63
2022-12-05T11:01:27.229Z,98790.28
2022-12-05T11:04:00.930Z,98776.81
2022-12-05T11:06:33.622Z,98799.13
2022-12-05T11:09:19.297Z,98800.78
2022-12-05T11:12:21.566Z,98793.88
2022-12-05T11:15:05.313Z,98786.75
2022-12-05T11:17:39.129Z,98784.50
2022-12-05T11:20:18.919Z,98775.72
2022-12-05T11:22:49.441Z,98800.94
2022-12-05T11:25:29.485Z,98828.00
2022-12-05T11:28:01.401Z,98840.00
2022-12-05T11:30:30.525Z,98812.91
2022-12-05T11:33:22.146Z,98795.38
2022-12-05T11:35:53.035Z,98760.50
2022-12-05T11:38:25.758Z,98787.44
2022-12-05T11:40:56.186Z,98778.41
2022-12-05T11:43:42.136Z,98772.16
2022-12-05T11:46:41.182Z,98771.88
2022-12-05T11:49:24.755Z,98771.59
2022-12-05T11:52:03.098Z,98782.84
2022-12-05T11:55:05.009Z,98760.84
2022-12-05T11:57:44.999Z,98758.16
2022-12-05T12:00:23.153Z,98749.91
2022-12-05T12:03:02.933Z,98738.66
2022-12-05T12:05:42.966Z,98739.75
2022-12-05T12:08:25.907Z,98738.66
2022-12-05T12:10:59.572Z,98734.00
2022-12-05T12:14:02.516Z,98726.06
2022-12-05T12:16:45.293Z,98727.69
2022-12-05T12:19:38.206Z,98733.19
2022-12-05T12:22:27.727Z,98721.38
2022-12-05T12:25:16.988Z,98715.06
2022-12-05T12:28:16.374Z,98709.31
2022-12-05T12:30:53.838Z,98702.16
2022-12-05T12:33:46.743Z,98697.19
2022-12-05T12:36:49.116Z,98699.72
2022-12-05T12:39:25.189Z,98712.03
2022-12-05T12:41:52.895Z,98707.06
2022-12-05T12:44:35.857Z,98696.69
2022-12-05T12:47:07.431Z,98703.28
2022-12-05T12:50:12.905Z,98703.88
2022-12-05T12:53:00.768Z,98696.72
2022-12-05T12:55:31.778Z,98695.09
2022-12-05T12:58:13.897Z,98690.69
2022-12-05T13:01:07.378Z,98676.97
2022-12-05T13:03:47.171Z,98665.44
2022-12-05T13:06:32.572Z,98676.41
2022-12-05T13:09:09.158Z,98656.06
2022-12-05T13:11:41.043Z,98677.25
2022-12-05T13:14:16.388Z,98676.69
2022-12-05T13:16:49.115Z,98668.69
2022-12-05T13:19:25.989Z,98680.78
2022-12-05T13:21:57.135Z,98682.16
2022-12-05T13:24:28.647Z,98673.59
2022-12-05T13:27:01.786Z,98679.13
2022-12-05T13:29:40.715Z,98678.03
2022-12-05T13:32:26.621Z,98657.13
2022-12-05T13:34:55.846Z,98681.59
2022-12-05T13:37:48.334Z,98675.56
2022-12-05T13:41:09.400Z,98686.81
2022-12-05T13:43:47.484Z,98686.75
2022-12-05T13:46:33.676Z,98682.09
2022-12-05T13:49:17.305Z,98681.53
2022-12-05T13:51:47.019Z,98681.81
2022-12-05T13:54:23.619Z,98677.72
2022-12-05T13:56:51.295Z,98677.44
2022-12-05T13:59:57.216Z,98682.91
2022-12-05T14:02:43.705Z,98674.41
2022-12-05T14:05:18.002Z,98659.59
2022-12-05T14:07:57.451Z,98670.81
2022-12-05T14:10:31.794Z,98661.53
2022-12-05T14:13:01.786Z,98655.22
2022-12-05T14:15:39.434Z,98657.72
2022-12-05T14:18:14.419Z,98663.44
2022-12-05T14:21:05.522Z,98665.41
2022-12-05T14:23:52.719Z,98652.75
2022-12-05T14:26:31.972Z,98645.34
2022-12-05T14:29:37.317Z,98644.50
2022-12-05T14:32:31.017Z,98655.75
2022-12-05T14:35:13.590Z,98648.03
2022-12-05T14:37:57.200Z,98646.44
2022-12-05T14:40:24.911Z,98646.97
2022-12-05T14:42:59.273Z,98631.91
2022-12-05T14:45:40.074Z,98636.28
2022-12-05T14:48:29.877Z,98626.41
2022-12-05T14:50:59.230Z,98632.16
2022-12-05T14:53:40.638Z,98628.59
2022-12-05T14:56:17.287Z,98634.63
2022-12-05T14:59:04.495Z,98625.31
2022-12-05T15:01:50.119Z,98611.88
2022-12-05T15:04:39.652Z,98619.28
2022-12-05T15:07:14.184Z,98606.09
2022-12-05T15:09:46.340Z,98599.53
2022-12-05T15:12:34.230Z,98620.59
2022-12-05T15:15:11.045Z,98611.03
2022-12-05T15:17:45.513Z,98598.97
2022-12-05T15:20:26.878Z,98606.66
2022-12-05T15:22:54.589Z,98606.09
2022-12-05T15:25:33.230Z,98601.72
2022-12-05T15:28:04.534Z,98594.59
2022-12-05T15:30:35.764Z,98605.00
2022-12-05T15:33:03.825Z,98614.34
2022-12-05T15:35:35.012Z,98597.59
2022-12-05T15:38:22.471Z,98610.22
2022-12-05T15:40:54.550Z,98596.50
2022-12-05T15:43:29.712Z,98606.66
2022-12-05T15:46:24.431Z,98604.72
2022-12-05T15:48:53.871Z,98592.66
2022-12-05T15:51:26.890Z,98592.38
2022-12-05T15:54:28.962Z,98572.38
2022-12-05T15:57:02.959Z,98573.75
2022-12-05T16:00:02.481Z,98587.69
2022-12-05T16:02:52.902Z,98602.00
2022-12-05T16:05:28.081Z,98611.88
2022-12-05T16:07:56.119Z,98595.66
2022-12-05T16:10:29.494Z,98602.00
2022-12-05T16:13:05.250Z,98595.97
2022-12-05T16:15:33.128Z,98588.28
2022-12-05T16:18:03.513Z,98578.94
2022-12-05T16:20:32.831Z,98583.34
2022-12-05T16:23:06.217Z,98570.44
2022-12-05T16:25:38.353Z,98590.19
2022-12-05T16:28:09.155Z,98567.97
2022-12-05T16:30:38.389Z,98568.25
2022-12-05T16:33:16.359Z,98566.59
2022-12-05T16:35:46.668Z,98578.41
2022-12-05T16:38:30.090Z,98566.31
2022-12-05T16:41:03.036Z,98571.81
2022-12-05T16:43:33.843Z,98553.72
2022-12-05T16:46:14.054Z,98552.91
2022-12-05T16:48:47.511Z,98554.00
2022-12-05T16:51:15.167Z,98562.19
2022-12-05T16:53:46.095Z,98559.22
2022-12-05T16:56:18.207Z,98553.44
2022-12-05T16:58:45.872Z,98560.31
2022-12-05T17:01:22.800Z,98553.44
2022-12-05T17:03:50.729Z,98553.97
2022-12-05T17:06:19.210Z,98552.63
2022-12-05T17:08:46.897Z,98540.81
2022-12-05T17:11:25.976Z,98537.53
2022-12-05T17:13:55.672Z,98541.91
2022-12-05T17:16:24.022Z,98536.44
2022-12-05T17:18:51.705Z,98528.75
2022-12-05T17:21:22.436Z,98533.16
2022-12-05T17:23:50.502Z,98533.41
2022-12-05T17:26:21.148Z,98540.28
2022-12-05T17:28:49.704Z,98534.50
2022-12-05T17:31:21.524Z,98532.59
2022-12-05T17:33:50.474Z,98519.97
2022-12-05T17:36:20.628Z,98507.34
2022-12-05T17:38:48.543Z,98505.72
2022-12-05T17:41:25.335Z,98499.69
2022-12-05T17:43:53.218Z,98501.88
2022-12-05T17:46:23.797Z,98496.38
2022-12-05T17:48:52.665Z,98493.38
2022-12-05T17:51:21.443Z,98490.34
2022-12-05T17:53:49.151Z,98468.41
2022-12-05T17:56:17.199Z,98479.66
2022-12-05T17:58:44.949Z,98468.97
2022-12-05T18:01:17.559Z,98467.84
2022-12-05T18:03:45.510Z,98463.75
2022-12-05T18:06:13.489Z,98461.56
2022-12-05T18:08:43.925Z,98452.50
2022-12-05T18:11:16.041Z,98463.22
2022-12-05T18:13:43.995Z,98455.22
2022-12-05T18:16:12.302Z,98455.78
2022-12-05T18:18:40.469Z,98452.22
2022-12-05T18:21:10.889Z,98462.66
2022-12-05T18:23:39.604Z,98462.38
2022-12-05T18:26:09.152Z,98452.25
2022-12-05T18:28:38.549Z,98443.47
2022-12-05T18:31:17.366Z,98456.88
2022-12-05T18:33:46.306Z,98462.38
2022-12-05T18:36:17.357Z,98466.78
2022-12-05T18:38:54.835Z,98433.31
2022-12-05T18:41:24.103Z,98462.38
2022-12-05T18:43:52.056Z,98463.22
2022-12-05T18:46:19.909Z,98484.59
2022-12-05T18:48:48.827Z,98479.66
2022-12-05T18:51:19.666Z,98489.25
2022-12-05T18:53:53.123Z,98487.06
2022-12-05T18:56:35.101Z,98475.00
2022-12-05T18:59:07.029Z,98465.09
2022-12-05T19:01:37.461Z,98477.19
2022-12-05T19:04:07.588Z,98461.00
2022-12-05T19:06:37.272Z,98468.41
2022-12-05T19:09:10.244Z,98461.56
2022-12-05T19:11:40.736Z,98453.06
2022-12-05T19:14:11.826Z,98449.47
2022-12-05T19:16:40.589Z,98446.47
2022-12-05T19:19:11.410Z,98436.28
2022-12-05T19:21:39.139Z,98445.91
2022-12-05T19:24:09.099Z,98433.84
2022-12-05T19:26:37.244Z,98434.09
2022-12-05T19:29:05.227Z,98440.16
2022-12-05T19:31:33.357Z,98416.81
2022-12-05T19:34:03.309Z,98426.13
2022-12-05T19:36:36.548Z,98430.53
2022-12-05T19:39:18.815Z,98432.47
2022-12-05T19:41:47.324Z,98423.97
2022-12-05T19:44:15.397Z,98419.00
2022-12-05T19:46:43.359Z,98423.69
2022-12-05T19:49:13.522Z,98425.59
2022-12-05T19:51:41.563Z,98406.44
2022-12-05T19:54:11.374Z,98465.13
2022-12-05T19:56:39.847Z,98600.09
2022-12-05T19:59:08.116Z,98602.28
2022-12-05T20:01:38.353Z,98552.34
2022-12-05T20:04:17.372Z,98586.38
2022-12-05T20:06:49.886Z,98549.34
2022-12-05T20:09:20.529Z,98551.00
2022-12-05T20:11:54.987Z,98537.00
2022-12-05T20:14:24.859Z,98553.72
2022-12-05T20:16:53.721Z,98562.25
2022-12-05T20:19:21.873Z,98577.63
2022-12-05T20:21:49.801Z,98569.66
2022-12-05T20:24:17.505Z,98563.59
2022-12-05T20:26:46.186Z,98543.00
2022-12-05T20:29:13.990Z,98523.81
2022-12-05T20:31:43.959Z,98508.19
2022-12-05T20:34:14.712Z,98510.09
2022-12-05T20:36:42.589Z,98495.53
2022-12-05T20:39:15.323Z,98501.59
2022-12-05T20:41:43.253Z,98507.06
2022-12-05T20:44:14.218Z,98502.38
2022-12-05T20:46:42.018Z,98496.06
2022-12-05T20:49:10.230Z,98494.16
2022-12-05T20:51:42.681Z,98497.72
2022-12-05T20:54:12.629Z,98494.69
2022-12-05T20:56:41.263Z,98493.88
2022-12-05T20:59:11.731Z,98506.78
2022-12-05T21:01:40.257Z,98487.84
2022-12-05T21:04:09.369Z,98494.94
2022-12-05T21:06:40.430Z,98494.69
2022-12-05T21:09:15.196Z,98491.41
2022-12-05T21:11:43.787Z,98487.00
2022-12-05T21:14:12.089Z,98479.88
2022-12-05T21:16:39.918Z,98474.94
2022-12-05T21:19:08.800Z,98467.00
2022-12-05T21:21:36.492Z,98466.16
2022-12-05T21:24:05.958Z,98460.09
2022-12-05T21:26:35.395Z,98467.78
2022-12-05T21:29:04.013Z,98479.59
2022-12-05T21:31:34.821Z,98475.22
2022-12-05T21:34:07.019Z,98471.09
2022-12-05T21:36:36.885Z,98458.19
2022-12-05T21:39:05.738Z,98452.41
2022-12-05T21:41:34.183Z,98448.28
2022-12-05T21:44:02.679Z,98440.84
2022-12-05T21:46:30.951Z,98435.66
2022-12-05T21:48:58.916Z,98424.97
2022-12-05T21:51:27.493Z,98423.84
2022-12-05T21:53:55.261Z,98411.19
2022-12-05T21:56:25.339Z,98402.63
2022-12-05T21:58:53.422Z,98401.47
2022-12-05T22:01:26.903Z,98407.19
2022-12-05T22:04:00.693Z,98400.31
2022-12-05T22:06:30.061Z,98394.56
2022-12-05T22:08:57.915Z,98397.09
2022-12-05T22:11:26.545Z,98409.47
2022-12-05T22:13:54.297Z,98433.66
2022-12-05T22:16:25.391Z,98439.41
2022-12-05T22:18:56.819Z,98426.78
2022-12-05T22:21:24.625Z,98415.25
2022-12-05T22:23:52.259Z,98428.69
2022-12-05T22:26:25.454Z,98434.50
2022-12-05T22:28:54.865Z,98438.91
2022-12-05T22:31:23.859Z,98413.13
2022-12-05T22:33:51.699Z,98432.59
2022-12-05T22:36:20.628Z,98428.50
2022-12-05T22:38:49.041Z,98434.56
2022-12-05T22:41:20.557Z,98411.50
2022-12-05T22:43:50.067Z,98416.69
2022-12-05T22:46:20.338Z,98426.03
2022-12-05T22:48:49.314Z,98433.44
2022-12-05T22:51:18.898Z,98427.41
2022-12-05T22:53:47.196Z,98435.38
2022-12-05T22:56:17.433Z,98423.56
2022-12-05T22:58:46.180Z,98419.47
2022-12-05T23:01:22.834Z,98420.53
2022-12-05T23:03:54.736Z,98420.53
2022-12-05T23:06:22.368Z,98425.50
2022-12-05T23:08:50.264Z,98431.53
2022-12-05T23:11:19.616Z,98438.94
2022-12-05T23:13:48.837Z,98441.13
2022-12-05T23:16:18.742Z,98426.81
2022-12-05T23:18:49.083Z,98428.75
2022-12-05T23:21:17.824Z,98426.56
2022-12-05T23:23:46.575Z,98410.38
2022-12-05T23:26:15.428Z,98392.50
2022-12-05T23:28:43.410Z,98394.19
2022-12-05T23:31:12.370Z,98409.03
2022-12-05T23:33:40.879Z,98426.84
2022-12-05T23:36:10.044Z,98420.00
2022-12-05T23:38:39.662Z,98424.09
2022-12-05T23:41:11.372Z,98427.69
2022-12-05T23:43:39.173Z,98392.00
2022-12-05T23:46:07.962Z,98408.22
2022-12-05T23:48:35.748Z,98404.66
2022-12-05T23:51:14.504Z,98412.34
2022-12-05T23:53:45.062Z,98401.91
2022-12-05T23:56:18.666Z,98418.38
2022-12-05T23:58:46.940Z,98410.97
